Time;durP1;ratioP1;P1;durP2;ratioP2;P2;SDS_P1;SDS_P2;PMS_P1;PMS_P2;Temp;Humidity;BMP_temperature;BMP_pressure;BME280_temperature;BME280_humidity;BME280_pressure;Samples;Min_cycle;Max_cycle;Signal;HPM_P1;HPM_P2
2021/06/04 00:01:44;;;;;;;10.82;9.73;;;20.70;99.90;;;;;;5036819;28;20183;-87
2021/06/04 00:04:10;;;;;;;14.85;9.57;;;20.90;99.90;;;;;;5036080;28;20249;-82
2021/06/04 00:06:37;;;;;;;10.65;9.10;;;20.90;99.90;;;;;;5039851;28;20243;-84
2021/06/04 00:09:08;;;;;;;14.20;10.10;;;21.00;99.90;;;;;;5040015;28;20574;-86
2021/06/04 00:11:41;;;;;;;18.23;9.63;;;21.00;99.90;;;;;;5037922;28;20616;-85
2021/06/04 00:14:09;;;;;;;16.42;10.88;;;21.00;99.90;;;;;;5038290;28;20195;-84
2021/06/04 00:16:40;;;;;;;12.25;10.30;;;20.90;99.90;;;;;;5038996;28;20195;-85
2021/06/04 00:19:13;;;;;;;16.75;10.43;;;20.70;99.90;;;;;;5037596;28;20207;-85
2021/06/04 00:21:44;;;;;;;16.23;10.90;;;20.70;99.90;;;;;;5038861;28;20152;-85
2021/06/04 00:24:13;;;;;;;11.15;8.70;;;20.50;99.90;;;;;;5039067;28;20209;-86
2021/06/04 00:26:41;;;;;;;11.18;8.60;;;20.30;99.90;;;;;;5038372;28;20222;-85
2021/06/04 00:29:07;;;;;;;9.75;8.75;;;20.40;99.90;;;;;;5037409;28;20192;-86
2021/06/04 00:31:33;;;;;;;16.88;10.13;;;20.50;99.90;;;;;;5039195;28;20691;-86
2021/06/04 00:33:59;;;;;;;13.85;9.07;;;20.60;99.90;;;;;;5037120;28;20241;-85
2021/06/04 00:36:25;;;;;;;14.10;9.15;;;20.70;99.90;;;;;;5035949;28;20169;-86
2021/06/04 00:38:53;;;;;;;13.98;8.20;;;20.60;99.90;;;;;;5037958;28;20210;-86
2021/06/04 00:41:48;;;;;;;13.60;8.63;;;20.60;99.90;;;;;;5035274;28;20160;-87
2021/06/04 00:44:14;;;;;;;9.45;8.60;;;20.40;99.90;;;;;;5024674;28;20334;-81
2021/06/04 00:46:47;;;;;;;10.73;9.60;;;20.70;99.90;;;;;;5041157;28;20168;-81
2021/06/04 00:49:14;;;;;;;14.38;9.68;;;20.70;99.90;;;;;;5039425;28;20682;-82
2021/06/04 00:51:57;;;;;;;18.88;9.18;;;20.70;99.90;;;;;;5024099;28;20183;-81
2021/06/04 00:54:25;;;;;;;13.18;10.45;;;20.70;99.90;;;;;;5055577;28;20171;-82
2021/06/04 00:56:51;;;;;;;14.52;10.60;;;20.60;99.90;;;;;;5057460;28;20196;-81
2021/06/04 00:59:35;;;;;;;12.07;9.75;;;20.40;99.90;;;;;;5055713;28;20196;-82
2021/06/04 01:02:04;;;;;;;14.00;9.48;;;20.50;99.90;;;;;;5040601;28;20290;-86
2021/06/04 01:04:31;;;;;;;15.43;10.52;;;20.50;99.90;;;;;;5037062;28;20334;-81
2021/06/04 01:07:19;;;;;;;17.40;11.18;;;20.70;99.90;;;;;;5037016;28;20191;-81
2021/06/04 01:09:59;;;;;;;14.27;10.82;;;20.90;99.90;;;;;;5039762;28;20561;-82
2021/06/04 01:12:43;;;;;;;11.35;9.10;;;21.00;99.90;;;;;;5036388;28;20180;-81
2021/06/04 01:15:32;;;;;;;20.30;10.35;;;20.80;99.90;;;;;;5036594;28;20175;-81
2021/06/04 01:18:07;;;;;;;12.77;10.05;;;20.60;99.90;;;;;;5035088;28;20178;-81
2021/06/04 01:20:36;;;;;;;16.35;10.13;;;20.40;99.90;;;;;;5037922;28;20674;-81
2021/06/04 01:23:39;;;;;;;15.80;10.30;;;20.30;99.90;;;;;;5035411;28;20183;-83
2021/06/04 01:26:15;;;;;;;19.83;9.93;;;20.40;99.90;;;;;;5035811;28;20191;-82
2021/06/04 01:28:45;;;;;;;17.48;11.18;;;20.20;99.90;;;;;;5033954;28;20164;-81
2021/06/04 01:31:19;;;;;;;12.75;10.27;;;20.30;99.90;;;;;;5034028;28;20175;-81
2021/06/04 01:34:17;;;;;;;17.33;10.82;;;20.40;99.90;;;;;;5032525;28;20172;-80
2021/06/04 01:36:54;;;;;;;17.00;11.00;;;20.30;99.90;;;;;;5026810;28;20184;-80
2021/06/04 01:39:29;;;;;;;22.90;10.95;;;20.20;99.90;;;;;;5032621;28;20575;-86
2021/06/04 01:41:57;;;;;;;14.90;9.77;;;20.40;99.90;;;;;;5032875;28;20216;-81
2021/06/04 01:44:35;;;;;;;11.95;10.13;;;20.50;99.90;;;;;;5034255;28;20223;-81
2021/06/04 01:47:07;;;;;;;14.75;8.57;;;20.40;99.90;;;;;;5033963;28;20778;-80
2021/06/04 01:49:37;;;;;;;17.85;9.43;;;20.60;99.90;;;;;;5034138;28;20191;-83
2021/06/04 01:52:32;;;;;;;9.55;8.25;;;20.50;99.90;;;;;;5033479;28;20271;-84
2021/06/04 01:55:09;;;;;;;12.55;8.45;;;20.20;99.90;;;;;;5034536;28;20648;-82
2021/06/04 01:57:38;;;;;;;8.93;7.93;;;20.00;99.90;;;;;;5032561;28;20164;-81
2021/06/04 02:00:13;;;;;;;14.32;8.52;;;19.80;99.90;;;;;;5032943;28;20180;-83
2021/06/04 02:02:39;;;;;;;9.55;7.97;;;19.70;99.90;;;;;;5033692;28;20536;-86
2021/06/04 02:05:08;;;;;;;9.90;7.75;;;19.60;99.90;;;;;;5033121;28;20200;-87
2021/06/04 02:07:34;;;;;;;11.68;7.72;;;19.50;99.90;;;;;;5033268;28;20262;-85
2021/06/04 02:10:03;;;;;;;17.50;8.77;;;19.40;99.90;;;;;;5033070;28;20281;-81
2021/06/04 02:12:30;;;;;;;12.35;8.43;;;19.40;99.90;;;;;;5032312;28;20262;-83
2021/06/04 02:15:05;;;;;;;8.68;7.63;;;19.70;99.90;;;;;;5033403;28;20255;-81
2021/06/04 02:17:33;;;;;;;12.23;7.07;;;19.90;99.90;;;;;;5032106;28;20255;-81
2021/06/04 02:20:15;;;;;;;10.05;7.38;;;20.20;99.90;;;;;;5033194;28;20226;-81
2021/06/04 02:23:08;;;;;;;9.10;7.22;;;20.40;99.90;;;;;;5032495;28;20171;-86
2021/06/04 02:25:46;;;;;;;9.68;7.15;;;20.60;99.90;;;;;;5033021;28;20651;-81
2021/06/04 02:28:17;;;;;;;10.73;7.00;;;20.50;99.90;;;;;;5032323;28;20179;-82
2021/06/04 02:30:53;;;;;;;16.33;7.47;;;20.50;99.90;;;;;;5033681;28;20184;-81
2021/06/04 02:33:24;;;;;;;10.23;7.38;;;20.40;99.90;;;;;;5036135;28;20628;-86
2021/06/04 02:35:59;;;;;;;8.05;7.35;;;20.30;99.90;;;;;;5035214;28;20187;-81
2021/06/04 02:38:33;;;;;;;10.50;7.88;;;20.20;99.90;;;;;;5042752;28;20198;-82
2021/06/04 02:41:22;;;;;;;7.75;6.85;;;19.90;99.90;;;;;;5036139;28;20199;-81
2021/06/04 02:44:02;;;;;;;12.00;7.22;;;20.00;99.90;;;;;;5034001;28;20623;-83
2021/06/04 02:46:36;;;;;;;14.20;7.57;;;19.90;99.90;;;;;;5036246;28;20156;-81
2021/06/04 02:49:06;;;;;;;18.48;8.48;;;19.70;99.90;;;;;;5031788;28;20274;-80
2021/06/04 02:51:50;;;;;;;20.15;8.80;;;19.50;99.90;;;;;;5037695;28;20159;-82
2021/06/04 02:54:21;;;;;;;15.90;9.32;;;19.60;99.90;;;;;;5042129;28;20251;-82
2021/06/04 02:56:54;;;;;;;15.80;9.15;;;19.80;99.90;;;;;;5038851;28;20203;-82
2021/06/04 02:59:26;;;;;;;10.60;9.45;;;19.90;99.90;;;;;;5022030;28;20528;-82
2021/06/04 03:01:59;;;;;;;15.15;10.55;;;19.90;99.90;;;;;;5042929;28;20203;-83
2021/06/04 03:04:27;;;;;;;21.00;13.52;;;19.70;99.90;;;;;;5046220;28;20265;-83
2021/06/04 03:06:56;;;;;;;14.85;12.13;;;19.90;99.90;;;;;;5038794;28;20317;-82
2021/06/04 03:09:28;;;;;;;15.90;11.63;;;20.10;99.90;;;;;;5035457;28;20219;-83
2021/06/04 03:11:57;;;;;;;17.92;11.35;;;20.00;99.90;;;;;;5037187;28;20172;-82
2021/06/04 03:14:23;;;;;;;17.25;12.18;;;19.60;99.90;;;;;;5037098;28;20578;-82
2021/06/04 03:16:52;;;;;;;29.15;13.15;;;19.40;99.90;;;;;;5036589;28;20179;-82
2021/06/04 03:19:20;;;;;;;21.83;11.85;;;19.60;99.90;;;;;;5040542;28;20270;-81
2021/06/04 03:21:50;;;;;;;13.73;10.60;;;19.60;99.90;;;;;;5038409;28;20266;-81
2021/06/04 03:24:32;;;;;;;11.60;9.50;;;19.70;99.90;;;;;;5042018;28;20241;-82
2021/06/04 03:26:59;;;;;;;13.18;8.68;;;19.80;99.90;;;;;;5044523;28;20164;-83
2021/06/04 03:29:27;;;;;;;14.65;10.23;;;19.50;99.90;;;;;;5058581;28;20191;-81
2021/06/04 03:32:07;;;;;;;22.00;10.05;;;19.40;99.90;;;;;;5025781;28;20160;-82
2021/06/04 03:34:33;;;;;;;12.52;9.63;;;19.40;99.90;;;;;;5054354;28;20176;-81
2021/06/04 03:37:00;;;;;;;21.35;10.55;;;19.30;99.90;;;;;;5042268;28;20708;-82
2021/06/04 03:39:31;;;;;;;22.75;13.70;;;19.40;99.90;;;;;;5043272;28;20586;-86
2021/06/04 03:41:58;;;;;;;27.85;13.02;;;19.50;99.90;;;;;;5046233;28;20176;-82
2021/06/04 03:44:29;;;;;;;20.77;12.93;;;19.70;99.90;;;;;;5042124;28;20192;-84
2021/06/04 03:46:54;;;;;;;25.13;12.52;;;19.80;99.90;;;;;;5035955;28;20168;-82
2021/06/04 03:49:21;;;;;;;18.92;11.98;;;19.90;99.90;;;;;;5036660;28;20194;-83
2021/06/04 03:51:53;;;;;;;26.65;11.55;;;19.70;99.90;;;;;;5038731;28;20279;-82
2021/06/04 03:54:24;;;;;;;17.80;12.00;;;19.60;99.90;;;;;;5036903;28;20183;-83
2021/06/04 03:56:50;;;;;;;22.02;11.65;;;19.80;99.90;;;;;;5035105;28;20172;-82
2021/06/04 03:59:16;;;;;;;21.25;11.30;;;19.90;99.90;;;;;;5034808;28;20606;-85
2021/06/04 04:01:46;;;;;;;15.85;11.27;;;20.00;99.90;;;;;;5036397;28;20183;-81
2021/06/04 04:04:12;;;;;;;18.45;11.57;;;20.00;99.90;;;;;;5035930;28;20246;-81
2021/06/04 04:06:38;;;;;;;17.98;11.80;;;19.90;99.90;;;;;;5037292;28;20183;-86
2021/06/04 04:09:07;;;;;;;15.90;10.75;;;19.60;99.90;;;;;;5036151;28;20175;-82
2021/06/04 04:11:33;;;;;;;14.85;10.80;;;19.60;99.90;;;;;;5035554;28;20178;-83
2021/06/04 04:13:58;;;;;;;24.45;12.20;;;19.50;99.90;;;;;;5035652;28;20258;-80
2021/06/04 04:16:24;;;;;;;27.60;11.77;;;19.50;99.90;;;;;;5035687;28;20194;-80
2021/06/04 04:18:50;;;;;;;22.63;10.52;;;19.60;99.90;;;;;;5034869;28;20677;-85
2021/06/04 04:21:15;;;;;;;25.13;11.35;;;19.80;99.90;;;;;;5035836;28;20172;-86
2021/06/04 04:23:48;;;;;;;19.80;10.25;;;19.90;99.90;;;;;;5034191;28;20571;-82
2021/06/04 04:26:18;;;;;;;14.13;9.52;;;19.90;99.90;;;;;;5035179;28;20172;-86
2021/06/04 04:28:49;;;;;;;16.08;10.05;;;20.00;99.90;;;;;;5035433;28;20172;-82
2021/06/04 04:31:20;;;;;;;13.95;10.48;;;20.20;99.90;;;;;;5038292;28;20170;-86
2021/06/04 04:33:45;;;;;;;15.00;10.52;;;20.20;99.90;;;;;;5035530;28;20167;-81
2021/06/04 04:36:13;;;;;;;12.73;9.88;;;20.20;99.90;;;;;;5034312;28;20187;-81
2021/06/04 04:38:39;;;;;;;21.83;9.02;;;20.20;99.90;;;;;;5033990;28;20176;-81
2021/06/04 04:41:06;;;;;;;13.07;9.00;;;20.20;99.90;;;;;;5034309;28;20196;-83
2021/06/04 04:43:38;;;;;;;15.80;9.27;;;20.20;99.90;;;;;;5033736;28;20709;-82
2021/06/04 04:46:06;;;;;;;13.15;9.20;;;20.10;99.90;;;;;;5034951;28;20260;-82
2021/06/04 04:48:32;;;;;;;12.55;9.27;;;20.20;99.90;;;;;;5035455;28;20172;-82
2021/06/04 04:50:58;;;;;;;22.38;9.20;;;20.20;99.90;;;;;;5034077;28;20198;-82
2021/06/04 04:53:25;;;;;;;19.30;9.15;;;20.20;99.90;;;;;;5034273;28;20186;-83
2021/06/04 04:55:51;;;;;;;22.20;9.93;;;20.40;99.90;;;;;;5033899;28;20171;-81
2021/06/04 04:58:18;;;;;;;16.65;9.98;;;20.40;99.90;;;;;;5035819;28;20172;-82
2021/06/04 05:00:45;;;;;;;24.05;9.25;;;20.30;99.90;;;;;;5034460;28;20203;-82
2021/06/04 05:03:13;;;;;;;22.17;10.32;;;20.60;99.90;;;;;;5033895;28;20180;-80
2021/06/04 05:05:39;;;;;;;13.27;9.07;;;20.70;99.90;;;;;;5033752;28;20207;-80
2021/06/04 05:08:06;;;;;;;22.73;9.95;;;20.90;99.90;;;;;;5033688;28;20175;-81
2021/06/04 05:10:32;;;;;;;18.52;10.63;;;21.20;99.90;;;;;;5033480;28;20226;-81
2021/06/04 05:12:58;;;;;;;12.57;9.30;;;21.40;99.90;;;;;;5033220;28;20175;-81
2021/06/04 05:15:28;;;;;;;18.00;10.48;;;21.50;99.90;;;;;;5033214;28;20164;-81
2021/06/04 05:17:54;;;;;;;21.33;10.35;;;21.60;99.90;;;;;;5034205;28;20171;-82
2021/06/04 05:20:21;;;;;;;11.77;10.07;;;21.60;99.90;;;;;;5032652;28;20207;-85
2021/06/04 05:22:47;;;;;;;16.10;8.85;;;21.70;99.90;;;;;;5032102;28;20620;-80
2021/06/04 05:25:21;;;;;;;26.30;10.32;;;21.90;99.90;;;;;;5032015;28;20200;-80
2021/06/04 05:27:47;;;;;;;15.05;9.35;;;21.90;99.90;;;;;;5033996;28;20230;-80
2021/06/04 05:30:19;;;;;;;16.40;9.30;;;21.80;99.90;;;;;;5032648;28;20242;-81
2021/06/04 05:32:45;;;;;;;18.85;10.75;;;21.60;99.90;;;;;;5033879;28;20175;-81
2021/06/04 05:35:11;;;;;;;21.75;9.40;;;21.50;99.90;;;;;;5033929;28;20167;-83
2021/06/04 05:37:38;;;;;;;22.67;11.07;;;21.30;99.90;;;;;;5033804;28;20168;-83
2021/06/04 05:40:10;;;;;;;24.20;9.60;;;21.10;99.90;;;;;;5032343;28;20202;-82
2021/06/04 05:42:36;;;;;;;32.13;11.27;;;21.00;99.90;;;;;;5032659;28;20163;-83
2021/06/04 05:45:04;;;;;;;25.92;10.98;;;21.10;99.90;;;;;;5032305;28;20243;-84
2021/06/04 05:47:29;;;;;;;19.20;10.00;;;21.20;99.90;;;;;;5033211;28;20246;-82
2021/06/04 05:49:55;;;;;;;26.50;11.77;;;21.10;99.90;;;;;;5032060;28;20311;-83
2021/06/04 05:52:21;;;;;;;13.23;9.90;;;21.30;99.90;;;;;;5033077;28;20230;-82
2021/06/04 05:54:49;;;;;;;14.68;10.27;;;21.50;99.90;;;;;;5032041;28;20178;-81
2021/06/04 05:57:15;;;;;;;22.02;9.85;;;21.50;99.90;;;;;;5033348;28;20160;-83
2021/06/04 05:59:41;;;;;;;23.75;9.80;;;21.60;99.90;;;;;;5034166;28;20210;-82
2021/06/04 06:02:09;;;;;;;35.08;10.02;;;21.80;99.90;;;;;;5037840;28;20203;-81
2021/06/04 06:04:35;;;;;;;27.45;10.85;;;22.10;99.90;;;;;;5054247;28;20667;-82
2021/06/04 06:07:00;;;;;;;13.88;10.60;;;22.20;99.90;;;;;;5057898;28;20163;-81
2021/06/04 06:09:26;;;;;;;16.48;10.35;;;22.30;99.90;;;;;;5045971;28;20203;-83
2021/06/04 06:11:52;;;;;;;19.92;11.45;;;22.00;99.90;;;;;;5034278;28;20176;-83
2021/06/04 06:14:18;;;;;;;21.40;12.43;;;21.90;99.90;;;;;;5033046;28;20249;-85
2021/06/04 06:16:44;;;;;;;18.25;12.32;;;21.90;99.90;;;;;;5032588;28;20205;-82
2021/06/04 06:19:12;;;;;;;14.23;11.63;;;21.70;99.90;;;;;;5032186;28;20187;-83
2021/06/04 06:21:44;;;;;;;13.80;11.20;;;22.00;99.90;;;;;;5032608;28;20251;-82
2021/06/04 06:24:10;;;;;;;16.88;11.50;;;22.10;99.90;;;;;;5032872;28;20246;-81
2021/06/04 06:26:36;;;;;;;15.23;11.93;;;22.00;99.90;;;;;;5033112;28;20164;-83
2021/06/04 06:29:02;;;;;;;16.45;11.13;;;22.00;99.90;;;;;;5033279;28;20674;-83
2021/06/04 06:31:32;;;;;;;21.17;11.95;;;21.90;99.90;;;;;;5030945;28;20167;-80
2021/06/04 06:33:58;;;;;;;25.65;11.82;;;22.00;99.90;;;;;;5032575;28;20179;-80
2021/06/04 06:36:27;;;;;;;26.00;10.75;;;22.30;99.90;;;;;;5032481;28;20177;-80
2021/06/04 06:38:54;;;;;;;16.52;11.48;;;22.50;99.90;;;;;;5032432;28;20160;-81
2021/06/04 06:41:20;;;;;;;24.65;11.55;;;22.30;99.90;;;;;;5031949;28;20159;-81
2021/06/04 06:43:48;;;;;;;28.70;12.50;;;22.40;99.90;;;;;;5031120;28;20211;-80
2021/06/04 06:46:16;;;;;;;17.27;11.45;;;22.20;99.90;;;;;;5032504;28;20209;-79
2021/06/04 06:48:43;;;;;;;25.60;12.27;;;22.50;99.90;;;;;;5032747;28;20627;-80
2021/06/04 06:51:09;;;;;;;18.27;10.70;;;22.90;99.90;;;;;;5032077;28;20187;-80
2021/06/04 06:53:37;;;;;;;15.90;9.43;;;23.50;99.90;;;;;;5030863;28;20532;-79
2021/06/04 06:56:05;;;;;;;19.45;9.65;;;23.90;99.90;;;;;;5032634;28;20627;-79
2021/06/04 06:58:31;;;;;;;23.90;10.73;;;24.30;99.90;;;;;;5032480;28;20636;-80
2021/06/04 07:00:57;;;;;;;16.45;9.73;;;25.10;99.90;;;;;;5035840;28;20337;-79
2021/06/04 07:03:29;;;;;;;52.20;11.73;;;25.20;99.90;;;;;;5032714;28;20196;-80
2021/06/04 07:05:57;;;;;;;20.25;10.38;;;25.50;99.90;;;;;;5030693;28;20179;-80
2021/06/04 07:08:24;;;;;;;18.35;8.68;;;25.60;99.90;;;;;;5032690;28;20533;-81
2021/06/04 07:10:50;;;;;;;13.20;8.70;;;26.20;99.90;;;;;;5032458;28;20274;-82
2021/06/04 07:13:25;;;;;;;12.95;8.27;;;26.10;99.90;;;;;;5031696;28;20187;-84
2021/06/04 07:15:51;;;;;;;15.48;8.43;;;26.20;99.90;;;;;;5031710;28;20249;-79
2021/06/04 07:18:17;;;;;;;11.27;8.43;;;26.40;99.90;;;;;;5032125;28;20175;-79
2021/06/04 07:20:43;;;;;;;11.15;9.05;;;26.30;99.90;;;;;;5031987;28;20184;-79
2021/06/04 07:23:11;;;;;;;11.52;8.95;;;25.90;99.90;;;;;;5032764;28;20613;-78
2021/06/04 07:25:39;;;;;;;13.95;9.27;;;26.00;99.90;;;;;;5031878;28;20211;-83
2021/06/04 07:28:05;;;;;;;15.63;10.20;;;26.90;99.90;;;;;;5030845;28;20272;-83
2021/06/04 07:30:39;;;;;;;10.98;9.13;;;27.30;99.90;;;;;;5032426;28;20269;-91
2021/06/04 07:33:07;;;;;;;28.00;11.35;;;27.30;99.90;;;;;;5034670;28;20172;-87
2021/06/04 07:35:35;;;;;;;16.40;9.40;;;27.60;99.90;;;;;;5036031;28;20172;-86
2021/06/04 07:38:01;;;;;;;18.25;10.80;;;27.50;99.90;;;;;;5036462;28;20180;-93
2021/06/04 07:40:29;;;;;;;20.08;11.07;;;26.90;99.90;;;;;;5036456;28;20665;-83
2021/06/04 07:42:57;;;;;;;17.90;11.18;;;26.50;99.90;;;;;;5033858;28;20168;-85
2021/06/04 07:45:25;;;;;;;19.52;10.48;;;26.60;99.90;;;;;;5032469;28;20298;-84
2021/06/04 07:47:51;;;;;;;21.17;10.73;;;26.50;99.90;;;;;;5034803;28;20170;-86
2021/06/04 07:50:20;;;;;;;13.05;10.75;;;26.40;99.90;;;;;;5035320;28;20562;-86
2021/06/04 07:52:45;;;;;;;17.88;9.90;;;26.10;99.90;;;;;;5038298;28;20535;-83
2021/06/04 07:55:12;;;;;;;13.30;10.38;;;26.40;99.90;;;;;;5037656;28;20247;-89
2021/06/04 07:57:38;;;;;;;42.60;12.23;;;25.80;99.90;;;;;;5035775;28;20640;-85
2021/06/04 08:00:07;;;;;;;32.00;11.60;;;25.90;99.90;;;;;;5035771;28;20234;-85
2021/06/04 08:02:33;;;;;;;15.65;10.85;;;25.70;99.90;;;;;;5035953;28;20278;-83
2021/06/04 08:04:59;;;;;;;21.10;9.57;;;26.00;99.90;;;;;;5033946;28;20200;-84
2021/06/04 08:07:25;;;;;;;22.80;10.88;;;25.90;99.90;;;;;;5034856;28;20508;-84
2021/06/04 08:09:51;;;;;;;16.00;10.82;;;25.60;99.90;;;;;;5035400;28;20187;-83
2021/06/04 08:12:17;;;;;;;13.50;9.75;;;25.10;99.90;;;;;;5033558;28;20180;-84
2021/06/04 08:14:43;;;;;;;13.70;8.57;;;25.00;99.90;;;;;;5036212;28;20667;-84
2021/06/04 08:17:13;;;;;;;8.85;7.95;;;25.10;99.90;;;;;;5036783;28;20163;-82
2021/06/04 08:19:39;;;;;;;7.78;6.55;;;25.20;99.90;;;;;;5035610;28;20667;-81
2021/06/04 08:22:08;;;;;;;14.57;8.00;;;25.20;99.90;;;;;;5036124;28;20283;-81
2021/06/04 08:24:35;;;;;;;9.23;7.07;;;25.50;99.90;;;;;;5038011;28;20211;-82
2021/06/04 08:27:04;;;;;;;10.68;7.88;;;25.60;99.90;;;;;;5038177;28;20168;-82
2021/06/04 08:29:32;;;;;;;7.05;6.35;;;25.60;99.90;;;;;;5035785;28;20207;-82
2021/06/04 08:32:03;;;;;;;7.72;5.50;;;25.60;99.90;;;;;;5037574;28;20176;-87
2021/06/04 08:34:29;;;;;;;23.63;5.97;;;25.70;99.90;;;;;;5037241;28;20339;-84
2021/06/04 08:36:55;;;;;;;7.97;7.18;;;25.80;99.90;;;;;;5038339;28;20262;-82
2021/06/04 08:39:29;;;;;;;8.15;6.47;;;25.70;99.90;;;;;;5040666;28;20234;-82
2021/06/04 08:41:57;;;;;;;24.75;7.75;;;25.70;99.90;;;;;;5049782;28;20148;-81
2021/06/04 08:44:49;;;;;;;13.65;7.50;;;25.50;99.90;;;;;;5057812;28;20214;-82
2021/06/04 08:47:34;;;;;;;10.50;8.43;;;25.80;99.90;;;;;;5057446;28;20167;-82
2021/06/04 08:50:27;;;;;;;15.90;8.45;;;26.00;99.90;;;;;;5038245;28;20195;-85
2021/06/04 08:53:13;;;;;;;8.95;6.95;;;26.10;99.90;;;;;;5038362;28;20164;-81
2021/06/04 08:55:54;;;;;;;14.55;8.52;;;25.70;99.90;;;;;;5038896;28;20191;-83
2021/06/04 08:58:35;;;;;;;19.50;9.68;;;25.70;99.90;;;;;;5036263;28;20163;-82
2021/06/04 09:01:06;;;;;;;13.00;9.70;;;25.60;99.90;;;;;;5041317;28;20683;-82
2021/06/04 09:03:40;;;;;;;12.07;7.50;;;25.60;99.90;;;;;;5043763;28;20198;-81
2021/06/04 09:06:33;;;;;;;11.40;9.00;;;25.60;99.90;;;;;;5044314;28;20197;-84
2021/06/04 09:09:09;;;;;;;25.75;9.80;;;25.60;99.90;;;;;;5033810;28;20245;-80
2021/06/04 09:11:37;;;;;;;12.27;8.73;;;25.90;99.90;;;;;;5037242;28;20163;-80
2021/06/04 09:14:04;;;;;;;20.10;9.15;;;25.70;99.90;;;;;;5037078;28;20310;-82
2021/06/04 09:16:38;;;;;;;16.45;9.52;;;25.70;99.90;;;;;;5038991;28;20180;-81
2021/06/04 09:19:30;;;;;;;10.30;8.55;;;25.80;99.90;;;;;;5042668;28;20217;-88
2021/06/04 09:21:56;;;;;;;29.42;10.98;;;25.70;99.90;;;;;;5038357;28;20247;-84
2021/06/04 09:24:31;;;;;;;19.42;9.82;;;25.50;99.90;;;;;;5035360;28;20242;-84
2021/06/04 09:26:57;;;;;;;10.90;8.27;;;25.80;99.90;;;;;;5037427;28;20172;-82
2021/06/04 09:29:30;;;;;;;11.02;8.48;;;26.00;99.90;;;;;;5036553;28;20257;-82
2021/06/04 09:31:58;;;;;;;13.40;8.77;;;25.80;99.90;;;;;;5033587;28;20196;-82
2021/06/04 09:34:25;;;;;;;12.25;8.82;;;26.00;99.90;;;;;;5036038;28;20176;-83
2021/06/04 09:36:58;;;;;;;15.90;9.35;;;26.00;99.90;;;;;;5066548;28;20228;-83
2021/06/04 09:39:29;;;;;;;24.45;10.00;;;26.20;99.90;;;;;;5077950;28;20194;-87
2021/06/04 09:42:17;;;;;;;20.67;10.18;;;26.30;99.90;;;;;;5074167;28;20504;-83
2021/06/04 09:44:57;;;;;;;16.48;10.95;;;26.50;99.90;;;;;;5060789;28;20708;-83
2021/06/04 09:47:38;;;;;;;14.77;10.63;;;26.40;99.90;;;;;;5074549;28;20177;-86
2021/06/04 09:50:28;;;;;;;11.18;9.90;;;26.40;99.90;;;;;;5074040;28;20198;-83
2021/06/04 09:53:07;;;;;;;13.85;10.10;;;27.00;99.90;;;;;;5074426;28;20181;-82
2021/06/04 09:55:36;;;;;;;14.02;10.45;;;27.20;99.90;;;;;;5074919;28;20173;-84
2021/06/04 09:58:04;;;;;;;21.27;12.00;;;27.00;99.90;;;;;;5038597;28;20547;-84
2021/06/04 10:00:35;;;;;;;17.40;10.85;;;26.90;99.90;;;;;;5032970;28;20738;-80
2021/06/04 10:03:12;;;;;;;27.33;12.63;;;26.80;99.90;;;;;;5050233;28;20176;-82
2021/06/04 10:05:38;;;;;;;13.50;12.05;;;27.30;99.90;;;;;;5032051;28;20269;-82
2021/06/04 10:08:05;;;;;;;14.93;11.15;;;27.70;99.90;;;;;;5033534;28;20163;-84
2021/06/04 10:10:35;;;;;;;15.45;10.40;;;28.20;99.90;;;;;;5033971;28;20196;-82
2021/06/04 10:13:04;;;;;;;12.07;10.90;;;28.80;99.90;;;;;;5032005;28;20214;-83
2021/06/04 10:15:48;;;;;;;20.17;12.65;;;28.40;99.90;;;;;;5032623;28;20206;-82
2021/06/04 10:18:24;;;;;;;16.65;11.00;;;28.30;99.90;;;;;;5031371;28;20262;-83
2021/06/04 10:20:51;;;;;;;16.98;13.43;;;28.20;99.90;;;;;;5031089;28;20202;-82
2021/06/04 10:23:38;;;;;;;14.68;10.82;;;28.10;99.90;;;;;;5032044;28;20239;-81
2021/06/04 10:26:27;;;;;;;22.17;11.75;;;28.10;99.90;;;;;;5031835;28;20186;-84
2021/06/04 10:28:57;;;;;;;16.52;12.18;;;28.30;99.90;;;;;;5032441;28;20168;-81
2021/06/04 10:31:45;;;;;;;12.57;10.25;;;28.00;99.90;;;;;;5030567;28;20179;-82
2021/06/04 10:34:25;;;;;;;17.25;12.48;;;27.90;99.90;;;;;;5032517;28;20168;-81
2021/06/04 10:36:56;;;;;;;17.80;12.40;;;27.60;99.90;;;;;;5033053;28;20519;-81
2021/06/04 10:39:32;;;;;;;16.08;11.45;;;27.90;99.90;;;;;;5032667;28;20196;-81
2021/06/04 10:42:19;;;;;;;15.70;11.15;;;27.70;99.90;;;;;;5032985;28;20560;-81
2021/06/04 10:45:11;;;;;;;14.00;12.60;;;27.60;99.90;;;;;;5032348;28;20242;-81
2021/06/04 10:47:49;;;;;;;12.63;10.90;;;27.60;99.90;;;;;;5032570;28;20254;-81
2021/06/04 10:50:25;;;;;;;19.20;12.02;;;27.10;99.90;;;;;;5033708;28;20187;-82
2021/06/04 10:53:21;;;;;;;13.15;11.85;;;27.30;99.90;;;;;;5032559;28;20186;-82
2021/06/04 10:56:11;;;;;;;16.48;12.60;;;27.40;99.90;;;;;;5031059;28;20514;-82
2021/06/04 10:58:51;;;;;;;16.63;14.02;;;27.40;99.90;;;;;;5032389;28;20175;-81
2021/06/04 11:01:24;;;;;;;12.45;11.35;;;27.40;99.90;;;;;;5032768;28;20191;-81
2021/06/04 11:04:20;;;;;;;16.30;11.27;;;27.60;99.90;;;;;;5032883;28;20178;-83
2021/06/04 11:07:05;;;;;;;14.93;13.15;;;27.70;99.90;;;;;;5031186;28;20631;-82
2021/06/04 11:09:52;;;;;;;19.00;13.57;;;27.60;99.90;;;;;;5033249;28;20274;-82
2021/06/04 11:12:51;;;;;;;16.27;12.13;;;27.60;99.90;;;;;;5034423;28;20172;-88
2021/06/04 11:15:38;;;;;;;12.60;11.30;;;27.60;99.90;;;;;;5034928;28;20172;-88
2021/06/04 11:18:36;;;;;;;15.48;11.13;;;27.40;99.90;;;;;;5034764;28;20172;-87
2021/06/04 11:21:03;;;;;;;13.05;11.38;;;27.60;99.90;;;;;;4996161;28;20199;-84
2021/06/04 11:23:51;;;;;;;22.58;12.10;;;27.70;99.90;;;;;;5057875;28;20168;-85
2021/06/04 11:26:24;;;;;;;16.20;12.80;;;27.60;99.90;;;;;;5059512;28;20176;-84
2021/06/04 11:29:00;;;;;;;12.23;11.23;;;27.50;99.90;;;;;;5059902;28;20155;-87
2021/06/04 11:31:28;;;;;;;25.33;13.93;;;27.50;99.90;;;;;;5039947;28;20211;-86
2021/06/04 11:33:59;;;;;;;18.25;12.75;;;27.60;99.90;;;;;;5045999;28;20183;-85
2021/06/04 11:36:31;;;;;;;16.98;11.57;;;27.30;99.90;;;;;;5043939;28;20214;-86
2021/06/04 11:39:09;;;;;;;12.45;11.23;;;27.50;99.90;;;;;;5039837;28;20168;-84
2021/06/04 11:41:34;;;;;;;13.52;11.85;;;27.60;99.90;;;;;;5037085;28;20172;-85
2021/06/04 11:44:23;;;;;;;18.80;11.38;;;27.50;99.90;;;;;;5035497;28;20203;-83
2021/06/04 11:47:20;;;;;;;20.95;11.07;;;27.70;99.90;;;;;;5030271;28;20176;-81
2021/06/04 11:49:55;;;;;;;12.15;11.02;;;27.90;99.90;;;;;;5038697;28;20195;-89
2021/06/04 11:52:32;;;;;;;14.30;11.15;;;28.20;99.90;;;;;;5037571;28;20175;-83
2021/06/04 11:55:22;;;;;;;11.70;10.05;;;28.30;99.90;;;;;;5036169;28;20167;-82
2021/06/04 11:58:01;;;;;;;13.80;10.80;;;28.30;99.90;;;;;;5037898;28;20172;-81
2021/06/04 12:00:47;;;;;;;13.23;10.73;;;28.10;99.90;;;;;;5036206;28;20192;-89
2021/06/04 12:03:14;;;;;;;11.70;10.50;;;28.20;99.90;;;;;;5035558;28;20539;-87
2021/06/04 12:05:40;;;;;;;14.20;10.75;;;28.20;99.90;;;;;;5037162;28;20207;-84
2021/06/04 12:08:15;;;;;;;11.60;10.18;;;27.90;99.90;;;;;;5037450;28;20164;-83
2021/06/04 12:10:46;;;;;;;13.60;10.25;;;27.90;99.90;;;;;;5036374;28;20205;-82
2021/06/04 12:13:40;;;;;;;18.45;10.93;;;27.80;99.90;;;;;;5036614;28;20175;-82
2021/06/04 12:18:59;;;;;;;18.75;9.48;;;27.70;99.90;;;;;;5035500;28;20582;-79
2021/06/04 12:21:40;;;;;;;15.35;11.75;;;27.80;99.90;;;;;;5035841;28;20254;-76
2021/06/04 12:24:10;;;;;;;16.17;10.18;;;27.80;99.90;;;;;;5035423;28;20250;-77
2021/06/04 12:26:40;;;;;;;14.10;11.68;;;27.70;99.90;;;;;;5035134;28;20643;-85
2021/06/04 12:29:21;;;;;;;11.43;10.07;;;27.40;99.90;;;;;;5035317;28;20174;-76
2021/06/04 12:32:00;;;;;;;10.25;9.40;;;27.30;99.90;;;;;;5034667;28;20178;-77
2021/06/04 12:34:31;;;;;;;13.55;9.73;;;27.50;99.90;;;;;;5035136;28;20171;-77
2021/06/04 12:37:18;;;;;;;10.55;9.38;;;27.50;99.90;;;;;;5035064;28;20602;-76
2021/06/04 12:40:00;;;;;;;10.93;9.48;;;27.20;99.90;;;;;;5034403;28;20714;-76
2021/06/04 12:42:25;;;;;;;17.20;10.65;;;26.90;99.90;;;;;;5034814;28;20172;-76
2021/06/04 12:44:55;;;;;;;12.10;11.00;;;26.60;99.90;;;;;;5034919;28;20215;-76
2021/06/04 12:47:29;;;;;;;12.30;9.80;;;26.40;99.90;;;;;;5036233;28;20507;-77
2021/06/04 12:50:06;;;;;;;13.57;11.80;;;26.20;99.90;;;;;;5033482;28;20191;-78
2021/06/04 12:52:32;;;;;;;15.30;12.57;;;26.20;99.90;;;;;;5034621;28;20171;-77
2021/06/04 12:55:15;;;;;;;17.23;11.57;;;25.80;99.90;;;;;;5034438;28;20902;-77
2021/06/04 12:57:40;;;;;;;3.67;2.22;;;25.60;99.90;;;;;;5035250;28;20168;-77
2021/06/04 13:00:23;;;;;;;4.07;2.00;;;25.00;99.90;;;;;;5035007;28;20245;-77